TimeWEST,TemperatureF,Dew PointF,Humidity,Sea Level PressureIn,VisibilityMPH,Wind Direction,Wind SpeedMPH,Gust SpeedMPH,PrecipitationIn,Events,Conditions,WindDirDegrees,DateUTC
12:00 AM,60.8,50.0,68,30.18,6.2,SW,3.5,-,N/A,,Scattered Clouds,230,2013-10-14 23:00:00
1:00 AM,61,49,54,30.17,9,SW,3.5,,,,Scattered Clouds,230,2013-10-15 00:00:00
1:00 AM,60.8,48.2,63,30.18,-9999.0,SW,3.5,-,N/A,,Clear,230,2013-10-15 00:00:00
3:00 AM,59.0,48.2,67,30.15,-9999.0,SW,3.5,-,N/A,,Clear,230,2013-10-15 02:00:00
4:00 AM,58,48,61,30.14,9,SSW,3.5,,,,Scattered Clouds,200,2013-10-15 03:00:00
4:00 AM,59.0,48.2,67,30.15,-9999.0,SSW,3.5,-,N/A,,Clear,200,2013-10-15 03:00:00
6:00 AM,55.4,44.6,67,30.15,-9999.0,WSW,3.5,-,N/A,,Clear,240,2013-10-15 05:00:00
7:00 AM,54,44,59,30.17,9,SSW,3.5,,,,Scattered Clouds,200,2013-10-15 06:00:00
9:00 AM,68.0,44.6,43,30.18,-9999.0,SW,3.5,-,N/A,,Clear,220,2013-10-15 08:00:00
10:00 AM,72,45,27,30.16,9,WNW,1.2,,,,Scattered Clouds,300,2013-10-15 09:00:00
10:00 AM,71.6,44.6,38,30.21,-9999.0,Variable,1.2,-,N/A,,Clear,0,2013-10-15 09:00:00
11:00 AM,77.0,44.6,32,30.21,-9999.0,Variable,2.3,-,N/A,,Clear,0,2013-10-15 10:00:00
12:00 PM,80.6,42.8,26,30.18,-9999.0,North,4.6,-,N/A,,Clear,10,2013-10-15 11:00:00
1:00 PM,83,45,16,30.09,9,NNE,4.6,,,,Scattered Clouds,20,2013-10-15 12:00:00
1:00 PM,82.4,44.6,26,30.18,-9999.0,Variable,4.6,-,N/A,,Clear,0,2013-10-15 12:00:00
2:00 PM,84.2,46.4,27,30.15,-9999.0,North,5.8,-,N/A,,Clear,360,2013-10-15 13:00:00
3:00 PM,84.2,48.2,29,30.12,-9999.0,North,10.4,-,N/A,,Clear,350,2013-10-15 14:00:00
4:00 PM,85,49,19,30.03,12,North,10.4,,,,Scattered Clouds,350,2013-10-15 15:00:00
4:00 PM,84.2,48.2,29,30.12,-9999.0,North,10.4,-,N/A,,Clear,350,2013-10-15 15:00:00
6:00 PM,77.0,46.4,34,30.12,-9999.0,North,15.0,-,N/A,,Clear,360,2013-10-15 17:00:00
9:00 PM,69.8,46.4,43,30.18,-9999.0,Calm,Calm,-,N/A,,Clear,0,2013-10-15 20:00:00
10:00 PM,65,46,38,30.16,12,SSW,3.5,,,,Scattered Clouds,210,2013-10-15 21:00:00
10:00 PM,64.4,46.4,52,30.18,6.2,SSW,3.5,-,N/A,,Scattered Clouds,210,2013-10-15 21:00:00